createdAt,value
2022-11-24T00:01:31.646Z,3.06
2022-11-24T00:04:05.413Z,2.65
2022-11-24T00:06:36.021Z,2.72
2022-11-24T00:09:05.407Z,4.16
2022-11-24T00:11:35.943Z,5.68
2022-11-24T00:14:06.336Z,6.78
2022-11-24T00:16:36.950Z,7.35
2022-11-24T00:19:12.746Z,7.31
2022-11-24T00:21:44.024Z,5.97
2022-11-24T00:24:12.219Z,4.91
2022-11-24T00:26:40.591Z,4.12
2022-11-24T00:29:11.485Z,3.54
2022-11-24T00:31:41.403Z,3.06
2022-11-24T00:34:14.531Z,2.99
2022-11-24T00:36:43.429Z,4.67
2022-11-24T00:39:14.319Z,5.96
2022-11-24T00:41:43.735Z,6.66
2022-11-24T00:44:12.792Z,6.91
2022-11-24T00:46:42.157Z,5.87
2022-11-24T00:49:11.983Z,4.79
2022-11-24T00:51:40.076Z,4.00
2022-11-24T00:54:08.396Z,3.41
2022-11-24T00:56:38.210Z,2.90
2022-11-24T00:59:06.235Z,2.89
2022-11-24T01:01:34.369Z,4.26
2022-11-24T01:04:02.856Z,5.66
2022-11-24T01:06:32.983Z,6.89
2022-11-24T01:09:01.627Z,7.35
2022-11-24T01:12:01.430Z,6.23
2022-11-24T01:14:30.871Z,4.84
2022-11-24T01:17:01.169Z,4.02
2022-11-24T01:19:29.237Z,3.40
2022-11-24T01:21:57.193Z,2.89
2022-11-24T01:24:26.052Z,2.47
2022-11-24T01:26:54.167Z,2.63
2022-11-24T01:29:22.352Z,4.74
2022-11-24T01:31:50.272Z,6.70
2022-11-24T01:34:18.476Z,8.16
2022-11-24T01:36:46.495Z,8.19
2022-11-24T01:39:14.872Z,6.68
2022-11-24T01:41:43.322Z,5.39
2022-11-24T01:44:42.480Z,4.49
2022-11-24T01:47:37.267Z,3.67
2022-11-24T01:50:06.173Z,3.05
2022-11-24T01:52:53.013Z,2.63
2022-11-24T01:55:25.917Z,2.94
2022-11-24T01:58:00.699Z,5.13
2022-11-24T02:00:28.873Z,7.28
2022-11-24T02:02:59.869Z,8.02
2022-11-24T02:05:39.236Z,6.72
2022-11-24T02:08:17.505Z,5.34
2022-11-24T02:10:46.444Z,4.41
2022-11-24T02:13:15.881Z,3.78
2022-11-24T02:15:43.964Z,3.24
2022-11-24T02:18:12.001Z,2.82
2022-11-24T02:20:40.123Z,2.94
2022-11-24T02:23:17.350Z,5.33
2022-11-24T02:26:19.546Z,7.99
2022-11-24T02:28:47.895Z,8.24
2022-11-24T02:31:15.917Z,6.64
2022-11-24T02:33:44.576Z,5.31
2022-11-24T02:36:12.574Z,4.34
2022-11-24T02:38:40.728Z,3.65
2022-11-24T02:41:17.950Z,3.10
2022-11-24T02:43:56.039Z,3.44
2022-11-24T02:46:24.486Z,6.48
2022-11-24T02:48:54.939Z,8.68
2022-11-24T02:51:23.518Z,9.34
2022-11-24T02:53:51.536Z,7.71
2022-11-24T02:56:19.569Z,6.19
2022-11-24T02:58:47.768Z,5.13
2022-11-24T03:01:15.958Z,4.37
2022-11-24T03:03:44.586Z,3.79
2022-11-24T03:06:12.516Z,3.30
2022-11-24T03:08:40.823Z,2.86
2022-11-24T03:11:09.013Z,3.13
2022-11-24T03:13:37.132Z,6.21
2022-11-24T03:16:10.445Z,8.55
2022-11-24T03:18:39.383Z,8.42
2022-11-24T03:21:07.727Z,6.80
2022-11-24T03:23:36.187Z,5.52
2022-11-24T03:26:12.277Z,4.64
2022-11-24T03:28:41.310Z,3.92
2022-11-24T03:31:10.233Z,3.38
2022-11-24T03:33:38.981Z,2.94
2022-11-24T03:36:08.436Z,3.05
2022-11-24T03:38:36.574Z,5.87
2022-11-24T03:41:04.600Z,8.55
2022-11-24T03:43:33.036Z,9.19
2022-11-24T03:46:01.307Z,7.61
2022-11-24T03:48:29.407Z,6.20
2022-11-24T03:50:59.866Z,5.16
2022-11-24T03:53:30.374Z,4.41
2022-11-24T03:55:58.597Z,3.82
2022-11-24T03:58:27.106Z,3.32
2022-11-24T04:00:56.541Z,2.89
2022-11-24T04:03:24.923Z,3.31
2022-11-24T04:05:53.383Z,6.61
2022-11-24T04:08:22.385Z,9.08
2022-11-24T04:10:52.507Z,9.36
2022-11-24T04:13:24.016Z,7.64
2022-11-24T04:15:53.698Z,6.24
2022-11-24T04:18:22.181Z,5.28
2022-11-24T04:20:51.961Z,4.55
2022-11-24T04:23:20.069Z,3.98
2022-11-24T04:25:48.927Z,3.48
2022-11-24T04:28:17.161Z,3.05
2022-11-24T04:30:45.324Z,3.40
2022-11-24T04:33:13.549Z,6.56
2022-11-24T04:35:41.606Z,8.92
2022-11-24T04:38:09.609Z,9.06
2022-11-24T04:40:38.859Z,7.38
2022-11-24T04:43:07.154Z,5.99
2022-11-24T04:45:35.824Z,5.01
2022-11-24T04:48:04.925Z,4.32
2022-11-24T04:50:33.026Z,3.78
2022-11-24T04:53:01.049Z,3.32
2022-11-24T04:55:29.382Z,3.53
2022-11-24T04:57:57.525Z,6.37
2022-11-24T05:00:25.473Z,8.89
2022-11-24T05:02:53.442Z,9.42
2022-11-24T05:05:21.760Z,7.76
2022-11-24T05:07:49.850Z,6.32
2022-11-24T05:10:36.109Z,5.32
2022-11-24T05:13:06.951Z,4.54
2022-11-24T05:15:36.957Z,3.96
2022-11-24T05:18:07.083Z,3.47
2022-11-24T05:20:35.644Z,3.06
2022-11-24T05:23:08.485Z,3.23
2022-11-24T05:25:36.929Z,6.31
2022-11-24T05:28:10.141Z,8.78
2022-11-24T05:30:40.253Z,9.35
2022-11-24T05:33:12.357Z,7.74
2022-11-24T05:35:40.576Z,6.25
2022-11-24T05:38:08.776Z,5.20
2022-11-24T05:40:37.996Z,4.45
2022-11-24T05:43:10.228Z,3.85
2022-11-24T05:45:38.183Z,3.35
2022-11-24T05:48:08.810Z,2.94
2022-11-24T05:50:36.916Z,3.21
2022-11-24T05:53:06.576Z,6.08
2022-11-24T05:55:35.343Z,8.40
2022-11-24T05:58:06.368Z,9.07
2022-11-24T06:00:35.457Z,7.55
2022-11-24T06:03:03.996Z,6.15
2022-11-24T06:05:32.167Z,5.19
2022-11-24T06:08:00.967Z,4.47
2022-11-24T06:10:29.074Z,3.88
2022-11-24T06:12:57.357Z,3.42
2022-11-24T06:15:25.293Z,3.02
2022-11-24T06:17:56.482Z,3.36
2022-11-24T06:20:31.209Z,5.77
2022-11-24T06:23:01.868Z,7.95
2022-11-24T06:25:30.236Z,9.02
2022-11-24T06:27:58.255Z,7.71
2022-11-24T06:30:27.021Z,6.34
2022-11-24T06:32:55.623Z,5.38
2022-11-24T06:35:23.595Z,4.70
2022-11-24T06:37:51.980Z,4.17
2022-11-24T06:40:20.079Z,3.71
2022-11-24T06:42:52.508Z,3.30
2022-11-24T06:45:20.600Z,3.85
2022-11-24T06:47:48.827Z,7.01
2022-11-24T06:50:17.369Z,8.95
2022-11-24T06:52:45.572Z,8.74
2022-11-24T06:55:13.850Z,7.21
2022-11-24T06:57:42.207Z,6.01
2022-11-24T07:00:11.366Z,5.18
2022-11-24T07:02:45.512Z,4.53
2022-11-24T07:05:15.251Z,3.98
2022-11-24T07:07:51.045Z,3.55
2022-11-24T07:10:19.597Z,4.02
2022-11-24T07:12:47.862Z,7.14
2022-11-24T07:15:15.790Z,9.19
2022-11-24T07:17:43.934Z,8.40
2022-11-24T07:20:13.918Z,6.88
2022-11-24T07:22:41.967Z,5.76
2022-11-24T07:25:11.200Z,4.96
2022-11-24T07:27:39.664Z,4.32
2022-11-24T07:30:10.170Z,3.81
2022-11-24T07:32:38.388Z,3.38
2022-11-24T07:35:06.785Z,3.82
2022-11-24T07:37:34.705Z,6.91
2022-11-24T07:40:02.848Z,8.82
2022-11-24T07:42:30.689Z,8.84
2022-11-24T07:44:58.523Z,7.30
2022-11-24T07:47:29.406Z,6.04
2022-11-24T07:49:57.238Z,5.10
2022-11-24T07:52:26.824Z,4.42
2022-11-24T07:54:54.924Z,3.88
2022-11-24T07:57:23.761Z,3.41
2022-11-24T07:59:51.611Z,3.67
2022-11-24T08:02:19.916Z,6.35
2022-11-24T08:04:47.735Z,7.96
2022-11-24T08:07:15.907Z,8.31
2022-11-24T08:09:43.904Z,7.00
2022-11-24T08:12:11.885Z,5.76
2022-11-24T08:14:39.789Z,4.88
2022-11-24T08:17:08.667Z,4.24
2022-11-24T08:19:37.157Z,3.75
2022-11-24T08:22:05.236Z,3.31
2022-11-24T08:24:33.690Z,3.50
2022-11-24T08:27:01.740Z,5.61
2022-11-24T08:29:30.506Z,7.45
2022-11-24T08:31:58.648Z,8.71
2022-11-24T08:34:29.392Z,9.09
2022-11-24T08:36:57.218Z,7.61
2022-11-24T08:39:25.294Z,6.31
2022-11-24T08:41:53.142Z,5.40
2022-11-24T08:44:21.091Z,4.75
2022-11-24T08:46:50.204Z,4.23
2022-11-24T08:49:19.039Z,3.77
2022-11-24T08:51:48.650Z,3.86
2022-11-24T08:54:20.891Z,6.22
2022-11-24T08:56:55.755Z,8.33
2022-11-24T08:59:25.191Z,8.97
2022-11-24T09:01:53.170Z,7.64
2022-11-24T09:04:21.093Z,6.37
2022-11-24T09:06:49.684Z,5.46
2022-11-24T09:09:18.368Z,4.81
2022-11-24T09:11:47.075Z,4.26
2022-11-24T09:14:15.385Z,3.79
2022-11-24T09:16:43.241Z,4.06
2022-11-24T09:19:11.089Z,6.73
2022-11-24T09:21:39.215Z,8.68
2022-11-24T09:24:08.197Z,9.04
2022-11-24T09:26:44.596Z,7.64
2022-11-24T09:29:16.308Z,6.36
2022-11-24T09:31:48.469Z,5.48
2022-11-24T09:34:17.254Z,4.85
2022-11-24T09:36:45.133Z,4.32
2022-11-24T09:39:13.015Z,3.84
2022-11-24T09:42:06.755Z,3.96
2022-11-24T09:44:58.626Z,6.37
2022-11-24T09:47:49.842Z,8.17
2022-11-24T09:50:31.959Z,8.28
2022-11-24T09:53:06.287Z,6.85
2022-11-24T09:55:38.168Z,5.73
2022-11-24T09:58:21.487Z,4.96
2022-11-24T10:00:53.346Z,4.34
2022-11-24T10:03:43.728Z,3.86
2022-11-24T10:06:39.184Z,4.38
2022-11-24T10:09:13.440Z,7.70
2022-11-24T10:12:03.419Z,9.21
2022-11-24T10:14:53.045Z,8.55
2022-11-24T10:17:42.868Z,6.92
2022-11-24T10:20:28.548Z,5.78
2022-11-24T10:23:03.033Z,4.97
2022-11-24T10:25:50.716Z,4.41
2022-11-24T10:28:19.392Z,3.92
2022-11-24T10:30:47.313Z,4.19
2022-11-24T10:33:19.712Z,7.16
2022-11-24T10:35:53.382Z,9.34
2022-11-24T10:38:21.981Z,8.76
2022-11-24T10:41:07.558Z,7.24
2022-11-24T10:43:42.689Z,6.01
2022-11-24T10:46:24.760Z,5.20
2022-11-24T10:49:04.041Z,4.56
2022-11-24T10:52:05.833Z,4.04
2022-11-24T10:54:36.135Z,3.53
2022-11-24T10:57:04.226Z,3.60
2022-11-24T10:59:38.505Z,5.76
2022-11-24T11:02:34.524Z,8.85
2022-11-24T11:05:42.576Z,9.38
2022-11-24T11:08:19.259Z,7.53
2022-11-24T11:11:11.214Z,6.32
2022-11-24T11:13:51.962Z,5.42
2022-11-24T11:16:27.796Z,4.80
2022-11-24T11:18:56.288Z,4.30
2022-11-24T11:21:39.653Z,3.90
2022-11-24T11:24:18.550Z,4.39
2022-11-24T11:26:46.878Z,7.79
2022-11-24T11:35:16.575Z,7.32
2022-11-24T11:37:45.890Z,6.31
2022-11-24T11:40:20.585Z,5.59
2022-11-24T11:43:08.061Z,5.01
2022-11-24T11:45:38.299Z,4.48
2022-11-24T11:48:12.817Z,4.02
2022-11-24T11:51:21.237Z,4.54
2022-11-24T11:53:47.600Z,7.81
2022-11-24T11:56:21.974Z,10.02
2022-11-24T11:59:21.644Z,10.26
2022-11-24T12:02:08.295Z,8.25
2022-11-24T12:04:53.097Z,6.85
2022-11-24T12:08:13.401Z,5.91
2022-11-24T12:10:54.126Z,5.11
2022-11-24T12:13:44.406Z,4.56
2022-11-24T12:16:42.104Z,4.04
2022-11-24T12:19:32.236Z,3.61
2022-11-24T12:22:06.273Z,4.42
2022-11-24T12:25:23.032Z,7.56
2022-11-24T12:28:18.053Z,8.77
2022-11-24T12:31:04.189Z,7.37
2022-11-24T12:33:59.555Z,6.03
2022-11-24T12:36:49.480Z,5.07
2022-11-24T12:39:47.360Z,4.44
2022-11-24T12:42:35.913Z,3.92
2022-11-24T12:45:13.214Z,3.51
2022-11-24T12:48:01.203Z,4.27
2022-11-24T12:50:40.194Z,7.98
2022-11-24T12:53:29.243Z,9.84
2022-11-24T12:56:21.326Z,8.77
2022-11-24T12:59:06.336Z,7.11
2022-11-24T13:01:41.842Z,6.05
2022-11-24T13:04:33.105Z,5.31
2022-11-24T13:07:10.930Z,4.69
2022-11-24T13:10:17.387Z,4.25
2022-11-24T13:13:05.263Z,5.13
2022-11-24T13:16:07.120Z,8.70
2022-11-24T13:18:57.179Z,9.94
2022-11-24T13:21:31.227Z,8.27
2022-11-24T13:24:01.525Z,6.99
2022-11-24T13:26:41.484Z,6.13
2022-11-24T13:29:28.991Z,5.42
2022-11-24T13:32:03.339Z,4.84
2022-11-24T13:34:55.311Z,4.40
2022-11-24T13:37:26.569Z,3.97
2022-11-24T13:40:14.366Z,4.60
2022-11-24T13:42:57.800Z,8.09
2022-11-24T13:45:45.340Z,9.72
2022-11-24T13:48:29.456Z,8.20
2022-11-24T13:50:57.958Z,6.76
2022-11-24T13:53:38.477Z,5.89
2022-11-24T13:56:12.900Z,5.20
2022-11-24T13:58:44.287Z,4.69
2022-11-24T14:01:43.867Z,4.22
2022-11-24T14:04:30.631Z,4.83
2022-11-24T14:07:09.827Z,8.47
2022-11-24T14:09:51.328Z,9.92
2022-11-24T14:12:25.313Z,8.35
2022-11-24T14:14:57.728Z,7.00
2022-11-24T14:17:28.858Z,6.06
2022-11-24T14:19:58.250Z,5.38
2022-11-24T14:22:34.324Z,4.87
2022-11-24T14:25:03.664Z,4.42
2022-11-24T14:27:38.773Z,4.05
2022-11-24T14:30:10.057Z,4.56
2022-11-24T14:32:38.379Z,7.87
2022-11-24T14:35:43.861Z,10.02
2022-11-24T14:38:14.798Z,8.90
2022-11-24T14:40:48.991Z,7.42
2022-11-24T14:43:26.033Z,6.33
2022-11-24T14:46:10.366Z,5.54
2022-11-24T14:48:58.919Z,4.94
2022-11-24T14:51:34.629Z,4.44
2022-11-24T14:54:14.226Z,4.04
2022-11-24T14:56:55.858Z,4.62
2022-11-24T14:59:27.105Z,7.67
2022-11-24T15:01:55.394Z,9.51
2022-11-24T15:07:29.252Z,7.27
2022-11-24T15:10:02.874Z,6.17
2022-11-24T15:12:36.071Z,5.44
2022-11-24T15:15:05.669Z,4.89
2022-11-24T15:17:34.433Z,4.44
2022-11-24T15:20:10.832Z,4.07
2022-11-24T15:22:41.677Z,4.76
2022-11-24T15:25:28.790Z,7.57
2022-11-24T15:27:56.880Z,9.19
2022-11-24T15:30:27.669Z,8.62
2022-11-24T15:32:57.756Z,7.27
2022-11-24T15:35:30.584Z,6.27
2022-11-24T15:37:59.059Z,5.55
2022-11-24T15:40:27.755Z,5.00
2022-11-24T15:42:59.612Z,4.54
2022-11-24T15:45:34.171Z,4.13
2022-11-24T15:48:02.133Z,4.56
2022-11-24T15:50:30.104Z,7.67
2022-11-24T15:52:58.355Z,9.92
2022-11-24T15:55:26.310Z,9.62
2022-11-24T15:57:54.399Z,8.06
2022-11-24T16:00:24.082Z,6.88
2022-11-24T16:02:52.073Z,6.05
2022-11-24T16:05:20.469Z,5.41
2022-11-24T16:07:48.671Z,4.90
2022-11-24T16:10:26.029Z,4.47
2022-11-24T16:12:54.258Z,4.72
2022-11-24T16:15:22.118Z,7.20
2022-11-24T16:17:51.376Z,9.09
2022-11-24T16:20:19.702Z,10.09
2022-11-24T16:22:47.658Z,8.73
2022-11-24T16:25:16.000Z,7.36
2022-11-24T16:27:44.177Z,6.39
2022-11-24T16:30:13.364Z,5.68
2022-11-24T16:32:43.578Z,5.12
2022-11-24T16:35:12.027Z,4.63
2022-11-24T16:37:40.062Z,4.21
2022-11-24T16:40:08.651Z,4.55
2022-11-24T16:42:36.666Z,7.60
2022-11-24T16:45:04.854Z,10.01
2022-11-24T16:47:32.764Z,9.72
2022-11-24T16:50:01.364Z,8.10
2022-11-24T16:52:29.513Z,6.87
2022-11-24T16:54:57.749Z,5.98
2022-11-24T16:57:25.852Z,5.32
2022-11-24T16:59:57.378Z,4.77
2022-11-24T17:02:25.972Z,4.33
2022-11-24T17:05:00.147Z,4.77
2022-11-24T17:07:28.179Z,7.91
2022-11-24T17:09:56.083Z,9.43
2022-11-24T17:12:24.374Z,8.23
2022-11-24T17:15:09.735Z,6.88
2022-11-24T17:18:01.266Z,5.81
2022-11-24T17:20:28.534Z,5.06
2022-11-24T17:22:57.526Z,4.58
2022-11-24T17:25:25.850Z,4.17
2022-11-24T17:27:54.458Z,4.64
2022-11-24T17:30:22.965Z,7.70
2022-11-24T17:32:56.909Z,9.89
2022-11-24T17:35:25.412Z,9.22
2022-11-24T17:37:53.325Z,7.68
2022-11-24T17:40:28.487Z,6.55
2022-11-24T17:42:59.873Z,5.71
2022-11-24T17:45:29.048Z,5.11
2022-11-24T17:48:00.847Z,4.59
2022-11-24T17:50:28.745Z,4.16
2022-11-24T17:52:56.850Z,4.61
2022-11-24T17:55:25.004Z,7.75
2022-11-24T17:57:53.079Z,9.26
2022-11-24T18:00:21.321Z,8.18
2022-11-24T18:02:49.726Z,6.86
2022-11-24T18:05:17.941Z,5.93
2022-11-24T18:07:45.928Z,5.28
2022-11-24T18:10:14.541Z,4.77
2022-11-24T18:12:42.525Z,4.35
2022-11-24T18:15:10.830Z,4.86
2022-11-24T18:17:39.935Z,7.96
2022-11-24T18:20:08.798Z,9.88
2022-11-24T18:23:04.549Z,9.04
2022-11-24T18:25:28.365Z,7.40
2022-11-24T18:27:56.524Z,6.40
2022-11-24T18:30:24.886Z,5.67
2022-11-24T18:32:53.318Z,5.09
2022-11-24T18:35:22.912Z,4.61
2022-11-24T18:37:51.774Z,4.77
2022-11-24T18:40:20.036Z,7.27
2022-11-24T18:42:51.594Z,9.48
2022-11-24T18:45:19.471Z,9.79
2022-11-24T18:47:47.703Z,8.31
2022-11-24T18:50:17.413Z,7.04
2022-11-24T18:52:45.817Z,6.15
2022-11-24T18:55:14.116Z,5.49
2022-11-24T18:57:42.253Z,4.96
2022-11-24T19:00:12.913Z,4.51
2022-11-24T19:02:41.398Z,4.67
2022-11-24T19:05:09.574Z,7.39
2022-11-24T19:07:38.973Z,9.61
2022-11-24T19:10:08.154Z,9.64
2022-11-24T19:12:36.624Z,8.12
2022-11-24T19:15:04.894Z,6.93
2022-11-24T19:17:32.947Z,6.07
2022-11-24T19:20:00.973Z,5.41
2022-11-24T19:22:28.964Z,4.86
2022-11-24T19:24:57.169Z,4.40
2022-11-24T19:27:25.644Z,4.51
2022-11-24T19:29:55.042Z,7.21
2022-11-24T19:32:23.291Z,9.36
2022-11-24T19:34:51.619Z,9.36
2022-11-24T19:37:19.481Z,7.88
2022-11-24T19:39:48.004Z,6.69
2022-11-24T19:42:16.562Z,5.85
2022-11-24T19:44:44.565Z,5.23
2022-11-24T19:47:16.129Z,4.74
2022-11-24T19:49:46.020Z,4.30
2022-11-24T19:52:14.113Z,4.45
2022-11-24T19:54:42.332Z,6.32
2022-11-24T19:57:11.174Z,7.93
2022-11-24T19:59:39.158Z,8.83
2022-11-24T20:02:07.291Z,8.07
2022-11-24T20:04:38.517Z,6.80
2022-11-24T20:07:08.139Z,5.84
2022-11-24T20:09:36.258Z,5.15
2022-11-24T20:12:04.568Z,4.60
2022-11-24T20:14:32.946Z,4.55
2022-11-24T20:17:01.426Z,6.36
2022-11-24T20:19:32.751Z,7.96
2022-11-24T20:22:04.366Z,9.07
2022-11-24T20:24:32.927Z,8.95
2022-11-24T20:27:01.375Z,7.58
2022-11-24T20:29:29.304Z,6.49
2022-11-24T20:31:57.588Z,5.70
2022-11-24T20:34:27.165Z,5.09
2022-11-24T20:36:55.453Z,4.60
2022-11-24T20:39:27.976Z,4.67
2022-11-24T20:41:56.518Z,7.53
2022-11-24T20:44:26.977Z,10.00
2022-11-24T20:46:57.511Z,10.05
2022-11-24T20:49:26.635Z,8.44
2022-11-24T20:51:56.958Z,7.17
2022-11-24T20:54:26.461Z,6.29
2022-11-24T20:56:54.594Z,5.64
2022-11-24T20:59:24.647Z,5.12
2022-11-24T21:01:55.898Z,4.67
2022-11-24T21:04:26.771Z,5.03
2022-11-24T21:06:55.615Z,7.94
2022-11-24T21:09:27.316Z,10.28
2022-11-24T21:11:55.327Z,9.83
2022-11-24T21:14:24.511Z,8.23
2022-11-24T21:16:52.670Z,7.00
2022-11-24T21:19:21.381Z,6.17
2022-11-24T21:21:50.141Z,5.53
2022-11-24T21:24:22.128Z,5.00
2022-11-24T21:26:53.001Z,4.54
2022-11-24T21:29:25.581Z,4.97
2022-11-24T21:31:53.857Z,8.11
2022-11-24T21:34:21.847Z,10.26
2022-11-24T21:36:49.992Z,9.95
2022-11-24T21:39:18.757Z,8.33
2022-11-24T21:41:47.805Z,7.09
2022-11-24T21:44:16.038Z,6.23
2022-11-24T21:46:51.039Z,5.57
2022-11-24T21:49:23.959Z,5.01
2022-11-24T21:51:55.817Z,4.57
2022-11-24T21:54:24.782Z,5.02
2022-11-24T21:56:54.457Z,8.09
2022-11-24T21:59:22.688Z,10.21
2022-11-24T22:01:51.122Z,9.46
2022-11-24T22:04:19.033Z,7.93
2022-11-24T22:06:46.945Z,6.82
2022-11-24T22:09:18.168Z,6.04
2022-11-24T22:11:49.722Z,5.42
2022-11-24T22:14:18.259Z,4.90
2022-11-24T22:16:46.721Z,4.47
2022-11-24T22:19:14.694Z,4.68
2022-11-24T22:21:42.740Z,7.18
2022-11-24T22:24:11.309Z,9.37
2022-11-24T22:26:39.214Z,9.82
2022-11-24T22:29:08.381Z,8.35
2022-11-24T22:31:36.292Z,7.03
2022-11-24T22:34:04.920Z,6.11
2022-11-24T22:36:32.894Z,5.41
2022-11-24T22:39:04.195Z,4.86
2022-11-24T22:41:34.638Z,5.00
2022-11-24T22:44:02.765Z,7.52
2022-11-24T22:46:32.378Z,9.60
2022-11-24T22:49:02.005Z,10.25
2022-11-24T22:51:34.778Z,8.73
2022-11-24T22:54:04.687Z,7.28
2022-11-24T22:56:33.732Z,6.28
2022-11-24T22:59:02.368Z,5.54
2022-11-24T23:01:31.594Z,4.96
2022-11-24T23:03:59.553Z,4.48
2022-11-24T23:06:29.539Z,4.96
2022-11-24T23:08:59.641Z,8.09
2022-11-24T23:11:37.761Z,10.24
2022-11-24T23:14:14.534Z,9.54
2022-11-24T23:16:43.141Z,7.89
2022-11-24T23:19:11.441Z,6.77
2022-11-24T23:21:39.821Z,5.96
2022-11-24T23:24:08.714Z,5.31
2022-11-24T23:26:41.333Z,4.75
2022-11-24T23:29:10.789Z,4.29
2022-11-24T23:31:41.902Z,4.77
2022-11-24T23:34:10.370Z,7.87
2022-11-24T23:36:43.538Z,10.04
2022-11-24T23:39:13.647Z,9.71
2022-11-24T23:41:41.857Z,8.09
2022-11-24T23:44:09.715Z,6.86
2022-11-24T23:46:38.092Z,5.99
2022-11-24T23:49:06.505Z,5.32
2022-11-24T23:51:35.099Z,4.76
2022-11-24T23:54:08.078Z,4.29
2022-11-24T23:56:36.830Z,4.69
2022-11-24T23:59:05.379Z,7.57
